sensor_id;sensor_type;location;lat;lon;timestamp;pressure;altitude;pressure_sealevel;temperature;humidity
44934;BME280;30667;43.614;1.442;2022-10-16T00:00:42;99734.66;;;17.61;100.00
44934;BME280;30667;43.614;1.442;2022-10-16T00:03:09;99728.06;;;17.62;100.00
44934;BME280;30667;43.614;1.442;2022-10-16T00:05:41;99732.75;;;17.61;100.00
44934;BME280;30667;43.614;1.442;2022-10-16T00:08:09;99730.69;;;17.58;100.00
44934;BME280;30667;43.614;1.442;2022-10-16T00:10:35;99730.34;;;17.60;100.00
44934;BME280;30667;43.614;1.442;2022-10-16T00:13:00;99732.75;;;17.61;100.00
44934;BME280;30667;43.614;1.442;2022-10-16T00:15:26;99732.41;;;17.63;100.00
44934;BME280;30667;43.614;1.442;2022-10-16T00:17:52;99729.06;;;17.57;100.00
44934;BME280;30667;43.614;1.442;2022-10-16T00:20:17;99729.06;;;17.57;100.00
44934;BME280;30667;43.614;1.442;2022-10-16T00:22:42;99729.19;;;17.61;100.00
44934;BME280;30667;43.614;1.442;2022-10-16T00:25:08;99719.88;;;17.62;100.00
44934;BME280;30667;43.614;1.442;2022-10-16T00:27:34;99717.78;;;17.59;100.00
44934;BME280;30667;43.614;1.442;2022-10-16T00:29:59;99722.28;;;17.85;100.00
44934;BME280;30667;43.614;1.442;2022-10-16T00:32:25;99714.53;;;17.87;100.00
44934;BME280;30667;43.614;1.442;2022-10-16T00:34:50;99710.91;;;17.74;100.00
44934;BME280;30667;43.614;1.442;2022-10-16T00:37:16;99712.13;;;17.85;100.00
44934;BME280;30667;43.614;1.442;2022-10-16T00:39:41;99709.47;;;17.76;100.00
44934;BME280;30667;43.614;1.442;2022-10-16T00:42:11;99716.47;;;17.65;100.00
44934;BME280;30667;43.614;1.442;2022-10-16T00:44:59;99722.28;;;17.64;100.00
44934;BME280;30667;43.614;1.442;2022-10-16T00:50:06;99726.66;;;17.56;100.00
44934;BME280;30667;43.614;1.442;2022-10-16T00:52:32;99724.88;;;17.60;100.00
44934;BME280;30667;43.614;1.442;2022-10-16T00:55:00;99721.16;;;17.65;100.00
44934;BME280;30667;43.614;1.442;2022-10-16T00:57:26;99729.53;;;17.59;100.00
44934;BME280;30667;43.614;1.442;2022-10-16T00:59:52;99726.31;;;17.57;100.00
44934;BME280;30667;43.614;1.442;2022-10-16T01:02:18;99723.38;;;17.63;100.00
44934;BME280;30667;43.614;1.442;2022-10-16T01:04:50;99730.34;;;17.60;100.00
44934;BME280;30667;43.614;1.442;2022-10-16T01:13:09;99733.81;;;17.69;100.00
44934;BME280;30667;43.614;1.442;2022-10-16T01:20:51;99726.88;;;17.72;100.00
44934;BME280;30667;43.614;1.442;2022-10-16T01:28:14;99732.69;;;17.70;100.00
44934;BME280;30667;43.614;1.442;2022-10-16T01:30:43;99729.47;;;17.68;100.00
44934;BME280;30667;43.614;1.442;2022-10-16T01:33:21;99726.22;;;17.75;100.00
44934;BME280;30667;43.614;1.442;2022-10-16T01:35:52;99717.72;;;17.68;100.00
44934;BME280;30667;43.614;1.442;2022-10-16T01:38:30;99713.66;;;17.74;100.00
44934;BME280;30667;43.614;1.442;2022-10-16T01:41:04;99722.59;;;17.83;100.00
44934;BME280;30667;43.614;1.442;2022-10-16T01:43:37;99732.44;;;17.84;100.00
44934;BME280;30667;43.614;1.442;2022-10-16T01:46:05;99727.63;;;17.81;100.00
44934;BME280;30667;43.614;1.442;2022-10-16T01:48:32;99726.44;;;17.91;100.00
44934;BME280;30667;43.614;1.442;2022-10-16T01:51:19;99718.41;;;17.86;100.00
44934;BME280;30667;43.614;1.442;2022-10-16T01:53:49;99721.94;;;17.86;100.00
44934;BME280;30667;43.614;1.442;2022-10-16T01:56:17;99725.91;;;17.97;100.00
44934;BME280;30667;43.614;1.442;2022-10-16T01:58:49;99723.38;;;17.92;100.00
44934;BME280;30667;43.614;1.442;2022-10-16T02:01:19;99730.31;;;17.90;100.00
44934;BME280;30667;43.614;1.442;2022-10-16T02:03:51;99729.72;;;18.05;100.00
44934;BME280;30667;43.614;1.442;2022-10-16T02:06:17;99730.03;;;18.04;100.00
44934;BME280;30667;43.614;1.442;2022-10-16T02:08:46;99730.59;;;17.97;100.00
44934;BME280;30667;43.614;1.442;2022-10-16T02:11:13;99725.25;;;18.01;100.00
44934;BME280;30667;43.614;1.442;2022-10-16T02:13:45;99722.03;;;17.99;100.00
44934;BME280;30667;43.614;1.442;2022-10-16T02:16:14;99723.69;;;18.12;100.00
44934;BME280;30667;43.614;1.442;2022-10-16T02:18:42;99718.09;;;18.08;100.00
44934;BME280;30667;43.614;1.442;2022-10-16T02:21:16;99706.97;;;18.26;100.00
44934;BME280;30667;43.614;1.442;2022-10-16T02:24:13;99711.94;;;18.11;100.00
44934;BME280;30667;43.614;1.442;2022-10-16T02:26:48;99707.25;;;18.12;100.00
44934;BME280;30667;43.614;1.442;2022-10-16T02:29:19;99706.38;;;18.20;100.00
44934;BME280;30667;43.614;1.442;2022-10-16T02:31:50;99700.50;;;18.30;100.00
44934;BME280;30667;43.614;1.442;2022-10-16T02:34:19;99697.03;;;18.21;100.00
44934;BME280;30667;43.614;1.442;2022-10-16T02:36:47;99697.53;;;18.36;100.00
44934;BME280;30667;43.614;1.442;2022-10-16T02:39:16;99701.25;;;18.19;100.00
44934;BME280;30667;43.614;1.442;2022-10-16T02:41:42;99701.25;;;18.19;100.00
44934;BME280;30667;43.614;1.442;2022-10-16T02:44:07;99696.53;;;18.07;100.00
44934;BME280;30667;43.614;1.442;2022-10-16T02:46:34;99690.25;;;18.06;100.00
44934;BME280;30667;43.614;1.442;2022-10-16T02:49:01;99689.94;;;18.20;100.00
44934;BME280;30667;43.614;1.442;2022-10-16T02:51:27;99682.91;;;18.31;100.00
44934;BME280;30667;43.614;1.442;2022-10-16T02:53:52;99690.13;;;18.36;100.00
44934;BME280;30667;43.614;1.442;2022-10-16T02:56:19;99689.63;;;18.22;100.00
44934;BME280;30667;43.614;1.442;2022-10-16T02:58:45;99696.19;;;18.08;100.00
44934;BME280;30667;43.614;1.442;2022-10-16T03:01:10;99690.72;;;18.08;100.00
44934;BME280;30667;43.614;1.442;2022-10-16T03:03:38;99693.19;;;18.01;100.00
44934;BME280;30667;43.614;1.442;2022-10-16T03:06:04;99703.22;;;17.97;100.00
44934;BME280;30667;43.614;1.442;2022-10-16T03:08:29;99707.06;;;17.96;100.00
44934;BME280;30667;43.614;1.442;2022-10-16T03:10:56;99699.69;;;18.30;100.00
44934;BME280;30667;43.614;1.442;2022-10-16T03:13:21;99707.19;;;18.21;100.00
44934;BME280;30667;43.614;1.442;2022-10-16T03:15:48;99702.88;;;17.99;100.00
44934;BME280;30667;43.614;1.442;2022-10-16T03:18:15;99711.22;;;18.02;100.00
44934;BME280;30667;43.614;1.442;2022-10-16T03:20:42;99707.72;;;18.14;100.00
44934;BME280;30667;43.614;1.442;2022-10-16T03:23:07;99709.94;;;18.00;100.00
44934;BME280;30667;43.614;1.442;2022-10-16T03:25:35;99712.00;;;18.03;100.00
44934;BME280;30667;43.614;1.442;2022-10-16T03:28:01;99711.94;;;18.11;100.00
44934;BME280;30667;43.614;1.442;2022-10-16T03:30:26;99718.97;;;18.00;100.00
44934;BME280;30667;43.614;1.442;2022-10-16T03:32:52;99711.75;;;17.95;100.00
44934;BME280;30667;43.614;1.442;2022-10-16T03:35:20;99709.75;;;18.05;100.00
44934;BME280;30667;43.614;1.442;2022-10-16T03:37:47;99706.88;;;18.22;100.00
44934;BME280;30667;43.614;1.442;2022-10-16T03:40:14;99704.41;;;18.42;100.00
44934;BME280;30667;43.614;1.442;2022-10-16T03:42:42;99709.44;;;18.19;100.00
44934;BME280;30667;43.614;1.442;2022-10-16T03:45:08;99719.88;;;18.04;100.00
44934;BME280;30667;43.614;1.442;2022-10-16T03:47:34;99720.75;;;17.96;100.00
44934;BME280;30667;43.614;1.442;2022-10-16T03:50:01;99725.16;;;17.88;100.00
44934;BME280;30667;43.614;1.442;2022-10-16T03:52:27;99719.75;;;18.01;100.00
44934;BME280;30667;43.614;1.442;2022-10-16T03:54:53;99726.97;;;18.05;100.00
44934;BME280;30667;43.614;1.442;2022-10-16T03:57:18;99719.63;;;17.97;100.00
44934;BME280;30667;43.614;1.442;2022-10-16T03:59:45;99720.22;;;18.03;100.00
44934;BME280;30667;43.614;1.442;2022-10-16T04:02:10;99714.81;;;18.15;100.00
44934;BME280;30667;43.614;1.442;2022-10-16T04:04:35;99723.63;;;18.21;100.00
44934;BME280;30667;43.614;1.442;2022-10-16T04:07:01;99719.19;;;18.28;100.00
44934;BME280;30667;43.614;1.442;2022-10-16T04:09:27;99721.06;;;18.37;100.00
44934;BME280;30667;43.614;1.442;2022-10-16T04:11:52;99716.81;;;18.27;100.00
44934;BME280;30667;43.614;1.442;2022-10-16T04:14:18;99718.56;;;18.10;100.00
44934;BME280;30667;43.614;1.442;2022-10-16T04:16:44;99721.63;;;18.09;100.00
44934;BME280;30667;43.614;1.442;2022-10-16T04:19:10;99713.34;;;18.18;100.00
44934;BME280;30667;43.614;1.442;2022-10-16T04:21:35;99714.00;;;18.14;100.00
44934;BME280;30667;43.614;1.442;2022-10-16T04:24:01;99717.16;;;18.04;100.00
44934;BME280;30667;43.614;1.442;2022-10-16T04:26:26;99710.28;;;18.19;100.00
44934;BME280;30667;43.614;1.442;2022-10-16T04:28:52;99713.34;;;18.18;100.00
44934;BME280;30667;43.614;1.442;2022-10-16T04:31:17;99718.88;;;18.09;100.00
44934;BME280;30667;43.614;1.442;2022-10-16T04:33:43;99715.03;;;18.10;100.00
44934;BME280;30667;43.614;1.442;2022-10-16T04:36:09;99719.00;;;18.12;100.00
44934;BME280;30667;43.614;1.442;2022-10-16T04:38:34;99708.09;;;18.25;100.00
44934;BME280;30667;43.614;1.442;2022-10-16T04:41:03;99719.56;;;18.27;100.00
44934;BME280;30667;43.614;1.442;2022-10-16T04:43:28;99732.63;;;18.21;100.00
44934;BME280;30667;43.614;1.442;2022-10-16T04:45:53;99732.97;;;18.20;100.00
44934;BME280;30667;43.614;1.442;2022-10-16T04:48:20;99740.72;;;18.18;100.00
44934;BME280;30667;43.614;1.442;2022-10-16T04:50:45;99740.91;;;18.12;100.00
44934;BME280;30667;43.614;1.442;2022-10-16T04:53:11;99746.59;;;18.07;100.00
44934;BME280;30667;43.614;1.442;2022-10-16T04:55:37;99747.75;;;18.06;100.00
44934;BME280;30667;43.614;1.442;2022-10-16T04:58:03;99750.00;;;18.04;100.00
44934;BME280;30667;43.614;1.442;2022-10-16T05:00:28;99752.28;;;18.02;100.00
44934;BME280;30667;43.614;1.442;2022-10-16T05:02:54;99752.28;;;18.02;100.00
44934;BME280;30667;43.614;1.442;2022-10-16T05:05:19;99749.34;;;18.07;100.00
44934;BME280;30667;43.614;1.442;2022-10-16T05:07:46;99747.75;;;18.06;100.00
44934;BME280;30667;43.614;1.442;2022-10-16T05:10:11;99751.94;;;18.04;100.00
44934;BME280;30667;43.614;1.442;2022-10-16T05:12:37;99756.41;;;18.08;100.00
44934;BME280;30667;43.614;1.442;2022-10-16T05:15:03;99762.81;;;18.12;100.00
44934;BME280;30667;43.614;1.442;2022-10-16T05:17:29;99757.69;;;18.11;100.00
44934;BME280;30667;43.614;1.442;2022-10-16T05:19:55;99762.81;;;18.12;100.00
44934;BME280;30667;43.614;1.442;2022-10-16T05:22:21;99769.34;;;18.20;100.00
44934;BME280;30667;43.614;1.442;2022-10-16T05:24:46;99768.97;;;18.30;100.00
44934;BME280;30667;43.614;1.442;2022-10-16T05:27:12;99776.56;;;18.25;100.00
44934;BME280;30667;43.614;1.442;2022-10-16T05:29:45;99776.31;;;18.18;100.00
44934;BME280;30667;43.614;1.442;2022-10-16T05:32:11;99769.69;;;18.19;100.00
44934;BME280;30667;43.614;1.442;2022-10-16T05:34:38;99774.66;;;18.25;100.00
44934;BME280;30667;43.614;1.442;2022-10-16T05:37:04;99782.31;;;18.32;100.00
44934;BME280;30667;43.614;1.442;2022-10-16T05:39:30;99786.47;;;18.38;100.00
44934;BME280;30667;43.614;1.442;2022-10-16T05:41:55;99784.06;;;18.37;100.00
44934;BME280;30667;43.614;1.442;2022-10-16T05:44:20;99783.38;;;18.40;100.00
44934;BME280;30667;43.614;1.442;2022-10-16T05:46:46;99778.91;;;18.35;100.00
44934;BME280;30667;43.614;1.442;2022-10-16T05:49:12;99779.44;;;18.28;100.00
44934;BME280;30667;43.614;1.442;2022-10-16T05:51:37;99782.53;;;18.27;100.00
44934;BME280;30667;43.614;1.442;2022-10-16T05:54:03;99774.13;;;18.32;100.00
44934;BME280;30667;43.614;1.442;2022-10-16T05:56:28;99777.63;;;18.32;100.00
44934;BME280;30667;43.614;1.442;2022-10-16T05:58:56;99770.94;;;18.42;100.00
44934;BME280;30667;43.614;1.442;2022-10-16T06:01:21;99768.22;;;18.42;100.00
44934;BME280;30667;43.614;1.442;2022-10-16T06:03:50;99768.00;;;18.47;100.00
44934;BME280;30667;43.614;1.442;2022-10-16T06:06:18;99757.47;;;18.70;100.00
44934;BME280;30667;43.614;1.442;2022-10-16T06:08:46;99759.81;;;18.93;100.00
44934;BME280;30667;43.614;1.442;2022-10-16T06:11:17;99767.25;;;19.05;100.00
44934;BME280;30667;43.614;1.442;2022-10-16T06:13:43;99765.09;;;19.11;100.00
44934;BME280;30667;43.614;1.442;2022-10-16T06:16:11;99765.88;;;19.11;100.00
44934;BME280;30667;43.614;1.442;2022-10-16T06:18:38;99766.47;;;19.04;100.00
44934;BME280;30667;43.614;1.442;2022-10-16T06:21:12;99771.38;;;19.11;100.00
44934;BME280;30667;43.614;1.442;2022-10-16T06:23:39;99778.34;;;19.09;100.00
44934;BME280;30667;43.614;1.442;2022-10-16T06:26:09;99786.44;;;19.05;100.00
44934;BME280;30667;43.614;1.442;2022-10-16T06:28:35;99787.16;;;19.14;100.00
44934;BME280;30667;43.614;1.442;2022-10-16T06:31:01;99783.84;;;19.09;100.00
44934;BME280;30667;43.614;1.442;2022-10-16T06:33:27;99785.28;;;18.94;100.00
44934;BME280;30667;43.614;1.442;2022-10-16T06:35:53;99785.91;;;18.78;100.00
44934;BME280;30667;43.614;1.442;2022-10-16T06:38:18;99802.38;;;18.78;100.00
44934;BME280;30667;43.614;1.442;2022-10-16T06:40:44;99802.44;;;18.69;100.00
44934;BME280;30667;43.614;1.442;2022-10-16T06:43:09;99796.88;;;18.78;100.00
44934;BME280;30667;43.614;1.442;2022-10-16T06:45:35;99803.78;;;18.84;100.00
44934;BME280;30667;43.614;1.442;2022-10-16T06:48:00;99810.81;;;18.73;100.00
44934;BME280;30667;43.614;1.442;2022-10-16T06:50:25;99817.78;;;18.83;100.00
44934;BME280;30667;43.614;1.442;2022-10-16T06:52:51;99824.75;;;18.80;100.00
44934;BME280;30667;43.614;1.442;2022-10-16T06:55:16;99824.06;;;18.83;100.00
44934;BME280;30667;43.614;1.442;2022-10-16T06:57:42;99822.78;;;18.81;100.00
44934;BME280;30667;43.614;1.442;2022-10-16T07:00:09;99822.00;;;18.80;100.00
44934;BME280;30667;43.614;1.442;2022-10-16T07:02:34;99827.59;;;18.72;100.00
44934;BME280;30667;43.614;1.442;2022-10-16T07:05:00;99828.16;;;18.77;100.00
44934;BME280;30667;43.614;1.442;2022-10-16T07:07:25;99832.09;;;18.88;100.00
44934;BME280;30667;43.614;1.442;2022-10-16T07:09:52;99837.59;;;18.88;100.00
44934;BME280;30667;43.614;1.442;2022-10-16T07:12:17;99848.75;;;18.83;100.00
44934;BME280;30667;43.614;1.442;2022-10-16T07:14:43;99853.03;;;18.72;100.00
44934;BME280;30667;43.614;1.442;2022-10-16T07:17:08;99847.56;;;18.72;100.00
44934;BME280;30667;43.614;1.442;2022-10-16T07:19:34;99844.81;;;18.72;100.00
44934;BME280;30667;43.614;1.442;2022-10-16T07:22:00;99840.84;;;18.82;100.00
44934;BME280;30667;43.614;1.442;2022-10-16T07:24:25;99855.03;;;18.84;100.00
44934;BME280;30667;43.614;1.442;2022-10-16T07:26:51;99851.38;;;18.80;100.00
44934;BME280;30667;43.614;1.442;2022-10-16T07:29:19;99857.50;;;18.77;100.00
44934;BME280;30667;43.614;1.442;2022-10-16T07:31:45;99864.47;;;18.74;100.00
44934;BME280;30667;43.614;1.442;2022-10-16T07:34:12;99847.00;;;18.79;100.00
44934;BME280;30667;43.614;1.442;2022-10-16T07:36:38;99859.59;;;18.80;100.00
44934;BME280;30667;43.614;1.442;2022-10-16T07:39:04;99861.91;;;18.90;100.00
44934;BME280;30667;43.614;1.442;2022-10-16T07:41:29;99860.25;;;18.98;100.00
44934;BME280;30667;43.614;1.442;2022-10-16T07:43:55;99867.78;;;19.01;100.00
44934;BME280;30667;43.614;1.442;2022-10-16T07:46:25;99874.41;;;19.00;100.00
44934;BME280;30667;43.614;1.442;2022-10-16T07:48:51;99870.19;;;19.02;100.00
44934;BME280;30667;43.614;1.442;2022-10-16T07:51:22;99868.50;;;19.10;100.00
44934;BME280;30667;43.614;1.442;2022-10-16T07:53:48;99872.66;;;19.16;100.00
44934;BME280;30667;43.614;1.442;2022-10-16T07:56:14;99864.75;;;19.27;100.00
44934;BME280;30667;43.614;1.442;2022-10-16T07:58:40;99880.75;;;19.25;100.00
44934;BME280;30667;43.614;1.442;2022-10-16T08:01:11;99879.16;;;19.24;100.00
44934;BME280;30667;43.614;1.442;2022-10-16T08:03:37;99879.63;;;19.26;100.00
44934;BME280;30667;43.614;1.442;2022-10-16T08:06:03;99881.38;;;19.31;100.00
44934;BME280;30667;43.614;1.442;2022-10-16T08:08:29;99878.50;;;19.39;100.00
44934;BME280;30667;43.614;1.442;2022-10-16T08:10:55;99877.47;;;19.32;100.00
44934;BME280;30667;43.614;1.442;2022-10-16T08:13:21;99886.84;;;19.31;100.00
44934;BME280;30667;43.614;1.442;2022-10-16T08:15:47;99874.75;;;19.44;100.00
44934;BME280;30667;43.614;1.442;2022-10-16T08:18:14;99880.91;;;19.41;100.00
44934;BME280;30667;43.614;1.442;2022-10-16T08:20:40;99875.53;;;19.45;100.00
44934;BME280;30667;43.614;1.442;2022-10-16T08:23:06;99876.44;;;19.36;100.00
44934;BME280;30667;43.614;1.442;2022-10-16T08:25:34;99881.69;;;19.41;100.00
44934;BME280;30667;43.614;1.442;2022-10-16T08:28:03;99885.81;;;19.48;100.00
44934;BME280;30667;43.614;1.442;2022-10-16T08:30:28;99886.09;;;19.55;100.00
44934;BME280;30667;43.614;1.442;2022-10-16T08:32:54;99889.47;;;19.39;100.00
44934;BME280;30667;43.614;1.442;2022-10-16T08:35:19;99887.56;;;19.52;100.00
44934;BME280;30667;43.614;1.442;2022-10-16T08:37:45;99879.09;;;19.57;100.00
44934;BME280;30667;43.614;1.442;2022-10-16T08:40:24;99893.59;;;19.46;100.00
44934;BME280;30667;43.614;1.442;2022-10-16T08:48:45;99907.09;;;19.51;100.00
44934;BME280;30667;43.614;1.442;2022-10-16T08:51:18;99898.63;;;19.56;100.00
44934;BME280;30667;43.614;1.442;2022-10-16T08:53:50;99909.53;;;19.65;100.00
44934;BME280;30667;43.614;1.442;2022-10-16T08:56:17;99909.75;;;19.59;100.00
44934;BME280;30667;43.614;1.442;2022-10-16T08:58:45;99909.28;;;19.57;100.00
44934;BME280;30667;43.614;1.442;2022-10-16T09:01:13;99906.19;;;19.59;100.00
44934;BME280;30667;43.614;1.442;2022-10-16T09:11:55;99915.47;;;19.67;100.00
44934;BME280;30667;43.614;1.442;2022-10-16T09:14:53;99907.16;;;19.75;100.00
44934;BME280;30667;43.614;1.442;2022-10-16T09:18:15;99907.63;;;19.77;100.00
44934;BME280;30667;43.614;1.442;2022-10-16T09:23:25;99901.13;;;19.94;100.00
44934;BME280;30667;43.614;1.442;2022-10-16T09:25:52;99906.63;;;19.94;100.00
44934;BME280;30667;43.614;1.442;2022-10-16T09:28:19;99903.84;;;19.82;100.00
44934;BME280;30667;43.614;1.442;2022-10-16T09:30:45;99901.44;;;20.05;100.00
44934;BME280;30667;43.614;1.442;2022-10-16T09:33:12;99906.38;;;19.87;100.00
44934;BME280;30667;43.614;1.442;2022-10-16T09:35:40;99903.38;;;19.92;100.00
44934;BME280;30667;43.614;1.442;2022-10-16T09:38:07;99903.06;;;19.82;100.00
44934;BME280;30667;43.614;1.442;2022-10-16T09:40:35;99893.78;;;19.86;100.00
44934;BME280;30667;43.614;1.442;2022-10-16T09:43:25;99889.56;;;20.01;100.00
44934;BME280;30667;43.614;1.442;2022-10-16T09:45:59;99887.75;;;19.93;100.00
44934;BME280;30667;43.614;1.442;2022-10-16T09:48:28;99883.72;;;19.90;100.00
44934;BME280;30667;43.614;1.442;2022-10-16T09:50:59;99877.78;;;19.88;100.00
44934;BME280;30667;43.614;1.442;2022-10-16T09:53:41;99882.69;;;19.95;100.00
44934;BME280;30667;43.614;1.442;2022-10-16T09:56:10;99879.47;;;20.05;100.00
44934;BME280;30667;43.614;1.442;2022-10-16T09:58:42;99894.38;;;20.04;100.00
44934;BME280;30667;43.614;1.442;2022-10-16T10:01:13;99906.72;;;19.98;100.00
44934;BME280;30667;43.614;1.442;2022-10-16T10:03:42;99901.22;;;19.98;100.00
44934;BME280;30667;43.614;1.442;2022-10-16T10:06:24;99891.97;;;20.03;100.00
44934;BME280;30667;43.614;1.442;2022-10-16T10:09:06;99890.59;;;19.96;100.00
44934;BME280;30667;43.614;1.442;2022-10-16T10:14:20;99891.13;;;20.14;100.00
44934;BME280;30667;43.614;1.442;2022-10-16T10:16:47;99888.38;;;20.27;100.00
44934;BME280;30667;43.614;1.442;2022-10-16T10:19:21;99885.88;;;20.09;100.00
44934;BME280;30667;43.614;1.442;2022-10-16T10:21:48;99887.03;;;20.08;100.00
44934;BME280;30667;43.614;1.442;2022-10-16T10:24:15;99874.06;;;20.21;100.00
44934;BME280;30667;43.614;1.442;2022-10-16T10:27:09;99879.00;;;20.16;100.00
44934;BME280;30667;43.614;1.442;2022-10-16T10:32:27;99871.19;;;20.30;100.00
44934;BME280;30667;43.614;1.442;2022-10-16T10:40:12;99868.13;;;20.19;100.00
44934;BME280;30667;43.614;1.442;2022-10-16T10:42:49;99862.97;;;20.18;100.00
44934;BME280;30667;43.614;1.442;2022-10-16T10:45:26;99862.19;;;20.17;100.00
44934;BME280;30667;43.614;1.442;2022-10-16T10:48:31;99853.25;;;20.20;100.00
44934;BME280;30667;43.614;1.442;2022-10-16T10:52:02;99854.84;;;20.21;100.00
44934;BME280;30667;43.614;1.442;2022-10-16T10:54:19;99854.28;;;20.28;100.00
44934;BME280;30667;43.614;1.442;2022-10-16T10:57:21;99850.59;;;20.24;100.00
44934;BME280;30667;43.614;1.442;2022-10-16T11:02:48;99860.22;;;20.18;100.00
44934;BME280;30667;43.614;1.442;2022-10-16T11:05:40;99855.53;;;20.18;100.00
44934;BME280;30667;43.614;1.442;2022-10-16T11:08:22;99855.31;;;20.23;100.00
44934;BME280;30667;43.614;1.442;2022-10-16T11:11:04;99869.75;;;20.20;100.00
44934;BME280;30667;43.614;1.442;2022-10-16T11:16:17;99841.31;;;20.28;100.00
44934;BME280;30667;43.614;1.442;2022-10-16T11:19:08;99854.38;;;20.31;100.00
44934;BME280;30667;43.614;1.442;2022-10-16T11:21:44;99869.94;;;20.27;100.00
44934;BME280;30667;43.614;1.442;2022-10-16T11:24:37;99849.66;;;20.32;100.00
44934;BME280;30667;43.614;1.442;2022-10-16T11:27:09;99850.00;;;20.30;100.00
44934;BME280;30667;43.614;1.442;2022-10-16T11:30:03;99851.97;;;20.30;100.00
44934;BME280;30667;43.614;1.442;2022-10-16T11:32:32;99850.69;;;20.40;100.00
44934;BME280;30667;43.614;1.442;2022-10-16T11:35:22;99847.38;;;20.34;100.00
44934;BME280;30667;43.614;1.442;2022-10-16T11:37:50;99832.84;;;20.33;100.00
44934;BME280;30667;43.614;1.442;2022-10-16T11:40:25;99841.19;;;20.37;100.00
44934;BME280;30667;43.614;1.442;2022-10-16T11:43:08;99834.53;;;20.38;100.00
44934;BME280;30667;43.614;1.442;2022-10-16T11:45:49;99837.72;;;20.40;100.00
44934;BME280;30667;43.614;1.442;2022-10-16T11:49:23;99840.81;;;20.39;100.00
44934;BME280;30667;43.614;1.442;2022-10-16T11:51:26;99832.59;;;20.39;100.00
44934;BME280;30667;43.614;1.442;2022-10-16T11:56:40;99804.72;;;20.53;100.00
44934;BME280;30667;43.614;1.442;2022-10-16T12:01:47;99796.66;;;20.60;100.00
44934;BME280;30667;43.614;1.442;2022-10-16T12:04:31;99780.34;;;20.51;100.00
44934;BME280;30667;43.614;1.442;2022-10-16T12:07:08;99773.00;;;20.55;100.00
44934;BME280;30667;43.614;1.442;2022-10-16T12:09:38;99777.94;;;20.49;100.00
44934;BME280;30667;43.614;1.442;2022-10-16T12:12:22;99772.66;;;20.57;100.00
44934;BME280;30667;43.614;1.442;2022-10-16T12:14:59;99770.44;;;20.62;100.00
44934;BME280;30667;43.614;1.442;2022-10-16T12:17:34;99770.66;;;20.70;100.00
44934;BME280;30667;43.614;1.442;2022-10-16T12:20:19;99767.16;;;20.57;100.00
44934;BME280;30667;43.614;1.442;2022-10-16T12:22:54;99758.78;;;20.53;100.00
44934;BME280;30667;43.614;1.442;2022-10-16T12:25:30;99755.25;;;20.53;100.00
44934;BME280;30667;43.614;1.442;2022-10-16T12:27:57;99754.88;;;20.66;100.00
44934;BME280;30667;43.614;1.442;2022-10-16T12:30:24;99758.63;;;20.62;100.00
44934;BME280;30667;43.614;1.442;2022-10-16T12:32:56;99762.09;;;20.59;100.00
44934;BME280;30667;43.614;1.442;2022-10-16T12:35:28;99755.59;;;20.51;100.00
44934;BME280;30667;43.614;1.442;2022-10-16T12:38:05;99764.84;;;20.59;100.00
44934;BME280;30667;43.614;1.442;2022-10-16T12:40:34;99767.72;;;20.50;100.00
44934;BME280;30667;43.614;1.442;2022-10-16T12:43:23;99767.38;;;20.51;100.00
44934;BME280;30667;43.614;1.442;2022-10-16T12:45:59;99759.97;;;20.52;100.00
44934;BME280;30667;43.614;1.442;2022-10-16T12:48:25;99751.84;;;20.72;100.00
44934;BME280;30667;43.614;1.442;2022-10-16T12:50:50;99754.72;;;20.63;100.00
44934;BME280;30667;43.614;1.442;2022-10-16T12:53:34;99755.91;;;20.62;100.00
44934;BME280;30667;43.614;1.442;2022-10-16T12:58:58;99771.22;;;20.63;100.00
44934;BME280;30667;43.614;1.442;2022-10-16T13:04:13;99765.97;;;20.58;100.00
44934;BME280;30667;43.614;1.442;2022-10-16T13:15:28;99793.34;;;20.66;100.00
44934;BME280;30667;43.614;1.442;2022-10-16T13:30:13;99796.09;;;20.66;100.00
44934;BME280;30667;43.614;1.442;2022-10-16T13:32:47;99791.88;;;20.85;100.00
44934;BME280;30667;43.614;1.442;2022-10-16T13:35:31;99788.03;;;20.74;100.00
44934;BME280;30667;43.614;1.442;2022-10-16T13:38:16;99803.16;;;20.96;100.00
44934;BME280;30667;43.614;1.442;2022-10-16T13:41:06;99796.03;;;20.79;100.00
44934;BME280;30667;43.614;1.442;2022-10-16T13:43:41;99791.34;;;20.79;100.00
44934;BME280;30667;43.614;1.442;2022-10-16T13:46:18;99791.59;;;20.74;100.00
44934;BME280;30667;43.614;1.442;2022-10-16T13:48:44;99793.28;;;20.79;100.00
44934;BME280;30667;43.614;1.442;2022-10-16T13:51:17;99787.16;;;20.70;100.00
44934;BME280;30667;43.614;1.442;2022-10-16T13:53:44;99794.63;;;20.85;100.00
44934;BME280;30667;43.614;1.442;2022-10-16T13:56:16;99785.38;;;20.77;100.00
44934;BME280;30667;43.614;1.442;2022-10-16T13:58:42;99786.81;;;20.71;100.00
44934;BME280;30667;43.614;1.442;2022-10-16T14:01:24;99793.09;;;20.72;100.00
44934;BME280;30667;43.614;1.442;2022-10-16T14:03:51;99793.09;;;20.72;100.00
44934;BME280;30667;43.614;1.442;2022-10-16T14:06:19;99800.56;;;20.71;100.00
44934;BME280;30667;43.614;1.442;2022-10-16T14:09:02;99793.13;;;20.88;100.00
44934;BME280;30667;43.614;1.442;2022-10-16T14:11:30;99800.09;;;20.69;100.00
44934;BME280;30667;43.614;1.442;2022-10-16T14:13:56;99791.34;;;20.79;100.00
44934;BME280;30667;43.614;1.442;2022-10-16T14:16:25;99789.56;;;20.71;100.00
44934;BME280;30667;43.614;1.442;2022-10-16T14:19:03;99796.94;;;20.83;100.00
44934;BME280;30667;43.614;1.442;2022-10-16T14:21:30;99802.22;;;20.76;100.00
44934;BME280;30667;43.614;1.442;2022-10-16T14:23:57;99809.59;;;20.72;100.00
44934;BME280;30667;43.614;1.442;2022-10-16T14:26:24;99815.19;;;20.75;100.00
44934;BME280;30667;43.614;1.442;2022-10-16T14:29:14;99812.28;;;20.84;100.00